Terminal Aerodrome Forecast
Issued by NWS Tulsa, OK

Home | Current Version | Previous Version | Text Only | Print | Product List | Glossary On
Versions: 1 2 3 4 5 6 7 8 9 10 11 12 13 14 15 16 17
541
FTUS44 KTSA 251725
TAFTUL
TAF
KTUL 251725Z 2518/2618 27011KT P6SM OVC017
     FM260000 31007KT P6SM OVC015
     FM260300 VRB03KT P6SM SCT015
     FM261500 15005KT P6SM SCT250=

USA.gov is the U.S. government's official web portal to all federal, state and local government web resources and services.